Home   Weather   City of Fremont   Past weeks
Flag for USA

Past Weather in City of Fremont, California, USA — Yesterday and Last 2 Weeks

Currently: 70 °F. Sunny. (Weather station: Moffett Field, USA). See more current weather

Past Weather in City of Fremont — Graph

°F

City of Fremont Temperature Yesterday

Maximum temperature yesterday: 64 °F (at 4:55 pm)
Minimum temperature yesterday: 52 °F (at 12:55 am)
Average temperature yesterday: 56 °F

High & Low Weather Summary for the Past Weeks

 TemperatureHumidityPressure
High77 °F (Apr 10, 2:35 pm)94% (Apr 3, 2:15 am)30.34 "Hg (Apr 3, 2:15 am)
Low41 °F (Apr 6, 4:15 am)35% (Apr 1, 3:35 pm)29.71 "Hg (Apr 4, 5:15 pm)
Average55 °F70%30.06 "Hg
* Reported Apr 1 1:35 pm — Apr 16 1:10 pm, City of Fremont. Weather by CustomWeather, © 2024

Note: Actual official high and low records may vary slightly from our data, if they occured in-between our weather recording intervals... More about our weather records

City of Fremont Weather History for the Previous 24 Hours

Scroll right to see more
 ConditionsComfort  
Time TempWeatherWind HumidityBarometerVisibility
1:10 pm
Tue, Apr 16
68 °FSunny.12 mph60%30.12 "Hg10 mi
12:35 pm66 °FSunny.8 mph60%30.13 "Hg10 mi
12:10 pm66 °FSunny.10 mph60%30.14 "Hg10 mi
11:50 am64 °FSunny.8 mph64%30.14 "Hg10 mi
10:55 am63 °FSunny.No wind68%30.14 "Hg10 mi
10:30 am61 °FSunny.5 mph72%30.14 "Hg10 mi
10:15 am61 °FSunny.6 mph72%30.14 "Hg10 mi
9:55 am59 °FSunny.No wind68%30.14 "Hg10 mi
9:35 am59 °FSunny.No wind72%30.14 "Hg10 mi
9:15 am59 °FSunny.3 mph68%30.15 "Hg10 mi
8:55 am57 °FSunny.5 mph72%30.15 "Hg10 mi
8:35 am55 °FSunny.No wind77%30.15 "Hg10 mi
8:15 am54 °FSunny.No wind82%30.16 "Hg10 mi
7:55 am54 °FSunny.No wind77%30.16 "Hg10 mi
7:35 am52 °FSunny.No wind82%30.16 "Hg10 mi
7:15 am50 °FSunny.No wind88%30.16 "Hg10 mi
6:55 am50 °FSunny.No wind88%30.15 "Hg10 mi
6:35 am48 °FSunny.No wind94%30.14 "Hg10 mi
6:15 am48 °FClear.No wind87%30.14 "Hg10 mi
5:55 am48 °FClear.No wind87%30.14 "Hg10 mi
4:55 am48 °FClear.No wind94%30.13 "Hg10 mi
4:35 am50 °FClear.No wind88%30.14 "Hg10 mi
4:15 am50 °FClear.No wind88%30.14 "Hg10 mi
3:55 am50 °FClear.No wind88%30.14 "Hg10 mi
3:35 am50 °FClear.No wind88%30.15 "Hg10 mi
3:15 am52 °FClear.No wind88%30.15 "Hg10 mi
2:55 am52 °FClear.No wind88%30.15 "Hg10 mi
2:35 am52 °FClear.No wind88%30.16 "Hg10 mi
2:15 am52 °FClear.No wind88%30.15 "Hg10 mi
1:55 am52 °FClear.No wind82%30.15 "Hg10 mi
1:30 am54 °FClear.5 mph82%30.15 "Hg10 mi
12:55 am54 °FClear.5 mph82%30.16 "Hg10 mi
12:35 am54 °FClear.3 mph82%30.16 "Hg10 mi
11:55 pm
Mon, Apr 15
52 °FClear.No wind82%30.17 "Hg10 mi
11:35 pm54 °FClear.No wind77%30.17 "Hg10 mi
10:55 pm54 °FClear.5 mph77%30.17 "Hg10 mi
10:35 pm54 °FClear.7 mph82%30.17 "Hg10 mi
10:15 pm55 °FClear.8 mph77%30.17 "Hg10 mi
9:55 pm55 °FClear.9 mph77%30.17 "Hg10 mi
9:35 pm55 °FClear.8 mph77%30.17 "Hg10 mi
8:55 pm57 °FClear.7 mph72%30.16 "Hg10 mi
8:35 pm57 °FClear.7 mph72%30.14 "Hg10 mi
8:15 pm57 °FClear.7 mph72%30.14 "Hg10 mi
7:55 pm59 °FClear.8 mph77%30.14 "Hg10 mi
7:35 pm59 °FSunny.12 mph77%30.14 "Hg10 mi
7:15 pm59 °FSunny.13 mph77%30.13 "Hg10 mi
6:55 pm61 °FSunny.14 mph72%30.13 "Hg10 mi
6:35 pm61 °FSunny.12 mph68%30.14 "Hg10 mi
6:15 pm61 °FSunny.13 mph68%30.14 "Hg10 mi
5:55 pm61 °FSunny.12 mph68%30.14 "Hg10 mi
5:35 pm61 °FSunny.14 mph68%30.14 "Hg10 mi
5:15 pm63 °FSunny.14 mph64%30.14 "Hg10 mi
4:55 pm64 °FSunny.13 mph60%30.15 "Hg10 mi
4:35 pm63 °FSunny.10 mph59%30.16 "Hg10 mi
4:15 pm63 °FSunny.9 mph59%30.16 "Hg10 mi
3:55 pm63 °FSunny.8 mph59%30.16 "Hg10 mi
3:35 pm63 °FSunny.9 mph59%30.17 "Hg10 mi
3:15 pm63 °FSunny.8 mph59%30.17 "Hg10 mi
2:55 pm63 °FSunny.8 mph64%30.18 "Hg10 mi
2:35 pm63 °FSunny.6 mph59%30.18 "Hg10 mi
2:15 pm63 °FSunny.5 mph59%30.18 "Hg10 mi
Weather by CustomWeather, © 2024

See weather overview